createdAt,value
2022-09-14T00:00:07.519Z,-25.3
2022-09-14T00:02:08.482Z,-25.6
2022-09-14T00:04:10.337Z,-25.6
2022-09-14T00:06:11.900Z,-25.7
2022-09-14T00:08:13.333Z,-25.5
2022-09-14T00:10:14.643Z,-25.5
2022-09-14T00:12:15.976Z,-25.8
2022-09-14T00:14:17.650Z,-25.6
2022-09-14T00:16:18.882Z,-25.4
2022-09-14T00:18:20.252Z,-25.5
2022-09-14T00:20:21.686Z,-25.5
2022-09-14T00:22:23.459Z,-25.5
2022-09-14T00:24:24.660Z,-25.6
2022-09-14T00:26:26.054Z,-25.6
2022-09-14T00:28:27.215Z,-25.7
2022-09-14T00:30:28.918Z,-25.6
2022-09-14T00:32:30.004Z,-25.5
2022-09-14T00:34:31.142Z,-25.8
2022-09-14T00:36:32.479Z,-25.9
2022-09-14T00:38:33.695Z,-25.7
2022-09-14T00:40:34.636Z,-25.9
2022-09-14T00:42:36.098Z,-25.6
2022-09-14T00:44:37.481Z,-25.7
2022-09-14T00:46:38.855Z,-25.5
2022-09-14T00:48:40.095Z,-25.9
2022-09-14T00:50:41.230Z,-25.5
2022-09-14T00:52:42.281Z,-25.5
2022-09-14T00:54:43.922Z,-25.4
2022-09-14T00:56:45.628Z,-25.7
2022-09-14T00:58:47.512Z,-25.8
2022-09-14T01:00:48.719Z,-26
2022-09-14T01:02:49.581Z,-25.7
2022-09-14T01:04:51.224Z,-25.9
2022-09-14T01:06:52.203Z,-25.7
2022-09-14T01:08:53.781Z,-25.7
2022-09-14T01:12:56.949Z,-25.9
2022-09-14T01:14:58.114Z,-25.7
2022-09-14T01:16:59.973Z,-25.7
2022-09-14T01:19:01.368Z,-25.9
2022-09-14T01:25:05.892Z,-26.2
2022-09-14T01:29:08.784Z,-25.7
2022-09-14T01:31:10.625Z,-25.8
2022-09-14T01:33:11.818Z,-25.7
2022-09-14T01:35:15.758Z,-25.5
2022-09-14T01:39:16.403Z,-25.9
2022-09-14T01:41:17.954Z,-25.8
2022-09-14T01:43:19.350Z,-26
2022-09-14T01:45:20.842Z,-26
2022-09-14T01:47:21.865Z,-26.3
2022-09-14T01:49:22.976Z,-26
2022-09-14T01:53:25.527Z,-26.3
2022-09-14T01:55:26.515Z,-26.1
2022-09-14T01:57:28.205Z,-26.3
2022-09-14T01:59:29.873Z,-26.1
2022-09-14T02:01:31.014Z,-26.2
2022-09-14T02:03:32.742Z,-26.2
2022-09-14T02:05:33.680Z,-26.1
2022-09-14T02:07:35.508Z,-26.5
2022-09-14T02:11:37.880Z,-26.4
2022-09-14T02:13:39.537Z,-26.4
2022-09-14T02:15:40.496Z,-26.6
2022-09-14T02:17:41.610Z,-26.6
2022-09-14T02:23:45.353Z,-26.8
2022-09-14T02:25:46.452Z,-27
2022-09-14T02:27:47.945Z,-26.9
2022-09-14T02:29:49.516Z,-26.7
2022-09-14T02:31:51.110Z,-27.1
2022-09-14T02:33:52.772Z,-26.7
2022-09-14T02:35:54.490Z,-26.8
2022-09-14T02:37:55.572Z,-27.2
2022-09-14T02:39:57.379Z,-27
2022-09-14T02:41:58.240Z,-27.3
2022-09-14T02:44:00.112Z,-25.4
2022-09-14T02:46:01.218Z,-25.7
2022-09-14T02:48:02.209Z,-25.9
2022-09-14T02:50:03.177Z,-25.7
2022-09-14T02:52:04.965Z,-25.8
2022-09-14T02:54:06.238Z,-25.7
2022-09-14T02:56:07.319Z,-25.6
2022-09-14T03:00:10.369Z,-25.7
2022-09-14T03:02:11.416Z,-25.4
2022-09-14T03:04:13.268Z,-25.3
2022-09-14T03:06:15.121Z,-25.4
2022-09-14T03:08:15.989Z,-25.6
2022-09-14T03:10:17.181Z,-25.6
2022-09-14T03:12:18.258Z,-25.6
2022-09-14T03:14:19.399Z,-25.3
2022-09-14T03:16:20.825Z,-25.5
2022-09-14T03:22:25.813Z,-25.4
2022-09-14T03:24:27.200Z,-25.6
2022-09-14T03:26:29.044Z,-25.4
2022-09-14T03:28:30.529Z,-25.6
2022-09-14T03:30:32.259Z,-25.4
2022-09-14T03:32:33.418Z,-25.5
2022-09-14T03:36:35.805Z,-25.4
2022-09-14T03:38:37.136Z,-25.6
2022-09-14T03:42:40.362Z,-25.6
2022-09-14T03:44:41.768Z,-25.6
2022-09-14T03:46:43.371Z,-25.5
2022-09-14T03:48:44.869Z,-25.6
2022-09-14T03:52:47.478Z,-25.5
2022-09-14T03:54:49.051Z,-25.6
2022-09-14T03:56:50.108Z,-25.6
2022-09-14T03:58:51.888Z,-25.6
2022-09-14T04:04:56.488Z,-25.5
2022-09-14T04:06:57.373Z,-25.1
2022-09-14T04:08:59.219Z,-25.4
2022-09-14T04:11:00.847Z,-25.4
2022-09-14T04:13:02.668Z,-25.4
2022-09-14T04:15:04.332Z,-25.6
2022-09-14T04:19:06.528Z,-25.5
2022-09-14T04:21:08.639Z,-25.4
2022-09-14T04:23:08.633Z,-25.3
2022-09-14T04:25:09.725Z,-25.5
2022-09-14T04:31:14.570Z,-25.5
2022-09-14T04:33:16.066Z,-25.4
2022-09-14T04:35:17.114Z,-25.3
2022-09-14T04:37:18.134Z,-25.7
2022-09-14T04:39:19.857Z,-25.7
2022-09-14T04:41:29.385Z,-25.7
2022-09-14T04:43:23.071Z,-25.3
2022-09-14T04:45:24.755Z,-25.4
2022-09-14T04:47:25.950Z,-25.5
2022-09-14T04:49:27.002Z,-25.4
2022-09-14T04:51:28.428Z,-25.7
2022-09-14T04:53:29.368Z,-25.7
2022-09-14T04:55:30.595Z,-25.9
2022-09-14T04:57:31.932Z,-25.6
2022-09-14T04:59:33.740Z,-25.6
2022-09-14T05:01:34.886Z,-25.5
2022-09-14T05:03:36.510Z,-25.4
2022-09-14T05:05:37.847Z,-25.6
2022-09-14T05:07:38.706Z,-25.5
2022-09-14T05:09:39.717Z,-25.7
2022-09-14T05:11:41.047Z,-25.7
2022-09-14T05:13:45.172Z,-25.5
2022-09-14T05:15:43.705Z,-25.5
2022-09-14T05:17:45.120Z,-25.4
2022-09-14T05:19:46.980Z,-25.4
2022-09-14T05:21:47.853Z,-25.7
2022-09-14T05:23:49.014Z,-25.7
2022-09-14T05:25:49.873Z,-25.6
2022-09-14T05:29:52.203Z,-25.7
2022-09-14T05:31:53.549Z,-25.7
2022-09-14T05:33:54.499Z,-25.8
2022-09-14T05:35:56.191Z,-25.6
2022-09-14T05:37:57.151Z,-25.5
2022-09-14T05:39:58.396Z,-25.5
2022-09-14T05:46:03.356Z,-25.2
2022-09-14T05:48:04.272Z,-25.5
2022-09-14T05:50:06.002Z,-25.5
2022-09-14T05:52:07.337Z,-25.5
2022-09-14T05:54:08.916Z,-25.4
2022-09-14T05:56:10.566Z,-25.3
2022-09-14T05:58:11.905Z,-25.5
2022-09-14T06:00:13.659Z,-25.6
2022-09-14T06:02:17.517Z,-25.4
2022-09-14T06:02:58.560Z,-25.6
2022-09-14T06:07:17.758Z,-25.4
2022-09-14T06:11:03.076Z,-25.5
2022-09-14T06:13:03.944Z,-25.3
2022-09-14T06:15:05.781Z,-25.4
2022-09-14T06:17:07.231Z,-25.6
2022-09-14T06:21:09.820Z,-25.4
2022-09-14T06:23:11.222Z,-25.6
2022-09-14T06:25:12.649Z,-25.6
2022-09-14T06:27:13.787Z,-25.6
2022-09-14T06:29:14.761Z,-25.5
2022-09-14T06:31:15.836Z,-25.2
2022-09-14T06:33:16.900Z,-25.5
2022-09-14T06:35:18.371Z,-25.4
2022-09-14T06:37:19.341Z,-25.5
2022-09-14T06:39:20.748Z,-25.4
2022-09-14T06:41:22.121Z,-25.6
2022-09-14T06:43:23.462Z,-25.7
2022-09-14T06:45:24.737Z,-25.8
2022-09-14T06:47:26.462Z,-25.4
2022-09-14T06:49:28.085Z,-23.4
2022-09-14T06:53:30.258Z,-25.5
2022-09-14T06:55:31.327Z,-25.7
2022-09-14T06:57:32.269Z,-21.7
2022-09-14T06:59:33.436Z,-25.5
2022-09-14T07:01:34.574Z,-25.4
2022-09-14T07:05:37.506Z,-25.7
2022-09-14T07:07:39.199Z,-25.7
2022-09-14T07:09:40.716Z,-25.7
2022-09-14T07:11:41.932Z,-25.4
2022-09-14T07:13:43.412Z,-25.6
2022-09-14T07:15:44.249Z,-25.4
2022-09-14T07:21:48.117Z,-25.3
2022-09-14T07:23:49.001Z,-25.5
2022-09-14T07:25:50.316Z,-25.7
2022-09-14T07:27:52.044Z,-25.5
2022-09-14T07:29:53.426Z,-25.4
2022-09-14T07:31:54.368Z,-25.2
2022-09-14T07:35:57.037Z,-25.9
2022-09-14T07:37:58.026Z,-25.7
2022-09-14T07:39:59.456Z,-25.9
2022-09-14T07:42:00.748Z,-25.4
2022-09-14T07:48:04.869Z,-25.5
2022-09-14T07:50:06.098Z,-19.29
2022-09-14T07:52:07.333Z,-19.6
2022-09-14T07:54:08.555Z,-25.5
2022-09-14T07:56:10.382Z,-25.6
2022-09-14T07:58:11.466Z,-25.6
2022-09-14T08:00:12.685Z,-25.5
2022-09-14T08:02:13.858Z,-25.2
2022-09-14T08:04:15.674Z,-19.4
2022-09-14T08:06:17.050Z,-17
2022-09-14T08:08:17.943Z,-16.79
2022-09-14T08:10:19.376Z,-16.6
2022-09-14T08:12:20.583Z,-18
2022-09-14T08:14:22.408Z,-18
2022-09-14T08:16:23.394Z,-18.5
2022-09-14T08:18:24.427Z,-21
2022-09-14T08:20:25.772Z,-11.2
2022-09-14T08:22:27.228Z,-15.4
2022-09-14T08:24:28.486Z,-25.6
2022-09-14T08:26:30.102Z,-25.6
2022-09-14T08:28:31.795Z,-25.5
2022-09-14T08:30:33.104Z,-16.1
2022-09-14T08:34:35.554Z,-25.4
2022-09-14T08:36:36.948Z,-23
2022-09-14T08:38:38.604Z,-25.5
2022-09-14T08:40:39.514Z,-25.4
2022-09-14T08:44:42.831Z,-21.7
2022-09-14T08:46:43.917Z,-25.7
2022-09-14T08:48:45.429Z,-13.6
2022-09-14T08:50:46.510Z,-10
2022-09-14T08:52:48.334Z,-4.5
2022-09-14T08:54:49.331Z,-6.2
2022-09-14T08:56:51.025Z,1.5
2022-09-14T08:58:52.065Z,4.8
2022-09-14T09:00:53.866Z,2.7
2022-09-14T09:02:55.675Z,-4.3
2022-09-14T09:06:57.624Z,-12.5
2022-09-14T09:08:59.296Z,-11.5
2022-09-14T09:11:00.789Z,-11.9
2022-09-14T09:13:01.701Z,-0.1
2022-09-14T09:15:02.970Z,-9.2
2022-09-14T09:19:04.919Z,-21.4
2022-09-14T09:21:06.532Z,-18.6
2022-09-14T09:23:07.929Z,-17.9
2022-09-14T09:25:09.642Z,-24.9
2022-09-14T09:27:10.951Z,-21.6
2022-09-14T09:29:11.898Z,-25.5
2022-09-14T09:35:14.929Z,-23.7
2022-09-14T09:37:16.436Z,-23.1
2022-09-14T09:39:17.754Z,-22.7
2022-09-14T09:41:18.528Z,-25.5
2022-09-14T09:43:33.512Z,-16.6
2022-09-14T09:45:21.125Z,-8
2022-09-14T09:47:22.699Z,-25.7
2022-09-14T09:49:23.940Z,-24.2
2022-09-14T09:51:25.713Z,-21.7
2022-09-14T09:53:26.629Z,-23.9
2022-09-14T09:55:27.895Z,-22.6
2022-09-14T10:01:31.444Z,-23.4
2022-09-14T10:05:34.222Z,-14.6
2022-09-14T10:07:35.227Z,-7.2
2022-09-14T10:09:36.095Z,4.5
2022-09-14T10:11:37.093Z,1.5
2022-09-14T10:17:40.442Z,7.4
2022-09-14T10:19:41.542Z,7
2022-09-14T10:21:42.988Z,-19.6
2022-09-14T10:23:43.828Z,-7.4
2022-09-14T10:25:45.078Z,5.8
2022-09-14T10:27:45.973Z,10.2
2022-09-14T10:29:47.178Z,6.4
2022-09-14T10:31:48.595Z,-2.2
2022-09-14T10:33:49.595Z,-6.8
2022-09-14T10:35:50.983Z,-2
2022-09-14T10:37:52.043Z,0.3
2022-09-14T10:39:53.842Z,12.8
2022-09-14T10:41:55.479Z,0.6
2022-09-14T10:43:57.157Z,7.7
2022-09-14T10:45:58.410Z,4.19
2022-09-14T10:47:59.565Z,-4.1
2022-09-14T10:50:01.236Z,19.9
2022-09-14T10:54:03.455Z,22
2022-09-14T10:58:05.783Z,28.7
2022-09-14T11:00:06.638Z,13
2022-09-14T11:02:08.255Z,16.79
2022-09-14T11:04:09.707Z,13.7
2022-09-14T11:06:11.391Z,34.4
2022-09-14T11:08:12.385Z,11
2022-09-14T11:10:14.076Z,25.3
2022-09-14T11:12:15.369Z,40.59
2022-09-14T11:14:17.746Z,83.3
2022-09-14T11:16:19.102Z,82.1
2022-09-14T11:18:20.176Z,81.9
2022-09-14T11:20:21.307Z,81.3
2022-09-14T11:24:24.693Z,9.7
2022-09-14T11:26:25.931Z,13.5
2022-09-14T11:28:27.457Z,19
2022-09-14T11:30:29.145Z,47.1
2022-09-14T11:32:30.812Z,81.4
2022-09-14T11:34:32.396Z,80.6
2022-09-14T11:36:33.876Z,79.8
2022-09-14T11:38:36.270Z,79.3
2022-09-14T11:40:37.646Z,78.5
2022-09-14T11:42:38.624Z,77.8
2022-09-14T11:44:39.700Z,77.3
2022-09-14T11:46:41.348Z,76.69
2022-09-14T11:48:43.528Z,76.19
2022-09-14T11:50:43.523Z,75.6
2022-09-14T11:52:45.847Z,74.8
2022-09-14T11:54:47.014Z,74.4
2022-09-14T11:56:48.279Z,73.4
2022-09-14T11:58:49.672Z,72.9
2022-09-14T12:00:50.930Z,72.19
2022-09-14T12:02:51.779Z,71.6
2022-09-14T12:04:52.545Z,71
2022-09-14T12:06:54.133Z,70.19
2022-09-14T12:08:55.459Z,70.69
2022-09-14T12:10:56.327Z,69.9
2022-09-14T12:12:57.177Z,69
2022-09-14T12:14:58.482Z,68.4
2022-09-14T12:16:59.636Z,67.4
2022-09-14T12:19:01.285Z,66.69
2022-09-14T12:21:02.421Z,65.5
2022-09-14T12:23:03.607Z,64.69
2022-09-14T12:25:05.142Z,63.8
2022-09-14T12:27:05.880Z,11.1
2022-09-14T12:29:07.039Z,-10.8
2022-09-14T12:31:08.568Z,-14.6
2022-09-14T12:33:09.297Z,-5.1
2022-09-14T12:35:10.451Z,2.5
2022-09-14T12:37:12.222Z,-12.4
2022-09-14T12:39:13.505Z,1.1
2022-09-14T12:41:14.520Z,-10.5
2022-09-14T12:43:16.028Z,-1.6
2022-09-14T12:45:17.699Z,-4.4
2022-09-14T12:47:19.022Z,-21.2
2022-09-14T12:52:05.046Z,-23.8
2022-09-14T12:54:06.803Z,-25.3
2022-09-14T12:56:07.955Z,-25.4
2022-09-14T12:58:08.841Z,-25.6
2022-09-14T13:00:09.840Z,-25.3
2022-09-14T13:02:11.470Z,-25.4
2022-09-14T13:06:13.574Z,-12.8
2022-09-14T13:08:14.753Z,2.8
2022-09-14T13:10:15.866Z,-10.5
2022-09-14T13:12:17.122Z,-19.5
2022-09-14T13:14:18.145Z,-21.2
2022-09-14T13:18:20.676Z,-25.6
2022-09-14T13:22:23.829Z,-25.5
2022-09-14T13:24:25.453Z,-25.5
2022-09-14T13:26:26.568Z,-25.5
2022-09-14T13:30:28.640Z,-25.7
2022-09-14T13:36:32.684Z,-25.4
2022-09-14T13:38:34.378Z,-25.6
2022-09-14T13:40:35.496Z,-25.7
2022-09-14T13:42:36.321Z,-26.1
2022-09-14T13:44:37.893Z,-26
2022-09-14T13:46:39.350Z,-26.1
2022-09-14T13:48:40.398Z,-26
2022-09-14T13:50:41.740Z,-26.2
2022-09-14T13:53:00.964Z,-25.9
2022-09-14T13:54:43.724Z,-25.9
2022-09-14T13:56:44.888Z,-26.3
2022-09-14T13:58:46.640Z,-26.3
2022-09-14T14:00:47.514Z,-26.4
2022-09-14T14:02:48.413Z,-26.2
2022-09-14T14:04:49.309Z,-26.5
2022-09-14T14:06:50.226Z,-26.5
2022-09-14T14:10:53.447Z,-26.7
2022-09-14T14:12:54.361Z,-26.5
2022-09-14T14:14:55.879Z,-26.6
2022-09-14T14:16:57.037Z,-26.7
2022-09-14T14:20:59.844Z,-27.2
2022-09-14T14:23:01.463Z,-27
2022-09-14T14:25:13.123Z,-27.1
2022-09-14T14:27:03.726Z,-27.3
2022-09-14T14:31:08.618Z,-27.2
2022-09-14T14:33:08.026Z,-27.2
2022-09-14T14:35:09.518Z,-26.9
2022-09-14T14:37:10.419Z,-26.9
2022-09-14T14:39:12.164Z,-27.1
2022-09-14T14:41:13.880Z,-27
2022-09-14T14:43:14.929Z,-27
2022-09-14T14:47:18.301Z,-25.5
2022-09-14T14:49:19.597Z,-27.2
2022-09-14T14:51:20.715Z,-27.5
2022-09-14T14:53:22.159Z,-25.7
2022-09-14T14:59:26.101Z,-25.5
2022-09-14T15:03:28.629Z,-25.5
2022-09-14T15:05:30.189Z,-25.6
2022-09-14T15:07:33.056Z,-25.6
2022-09-14T15:09:32.376Z,-25.6
2022-09-14T15:13:35.386Z,-25.5
2022-09-14T15:15:36.341Z,-25.3
2022-09-14T15:17:37.367Z,-25.5
2022-09-14T15:19:38.805Z,-25.4
2022-09-14T15:21:39.870Z,-25.5
2022-09-14T15:23:40.889Z,-25.7
2022-09-14T15:25:42.377Z,-25.4
2022-09-14T15:27:44.012Z,-25.8
2022-09-14T15:29:45.437Z,-25.6
2022-09-14T15:31:47.076Z,-25.4
2022-09-14T15:33:53.506Z,-24.1
2022-09-14T15:35:50.302Z,-21.3
2022-09-14T15:37:51.135Z,-20.29
2022-09-14T15:39:52.479Z,-20.9
2022-09-14T15:41:53.508Z,-21.5
2022-09-14T15:43:55.122Z,-23.5
2022-09-14T15:45:56.862Z,-22.7
2022-09-14T15:47:58.147Z,-23.6
2022-09-14T15:49:59.107Z,-24
2022-09-14T15:52:00.226Z,-25
2022-09-14T15:54:01.869Z,-25.6
2022-09-14T15:58:05.107Z,-24.5
2022-09-14T16:00:06.453Z,-22.9
2022-09-14T16:02:08.083Z,-24.5
2022-09-14T16:04:11.509Z,-24.3
2022-09-14T16:06:10.535Z,-24.2
2022-09-14T16:08:12.059Z,-23.6
2022-09-14T16:14:16.040Z,-25.4
2022-09-14T16:16:17.528Z,-25.6
2022-09-14T16:18:18.694Z,-25.5
2022-09-14T16:20:19.613Z,-25.5
2022-09-14T16:22:20.586Z,-25.3
2022-09-14T16:24:21.610Z,-25.5
2022-09-14T16:28:24.718Z,-25.5
2022-09-14T16:30:25.741Z,-25.5
2022-09-14T16:32:27.278Z,-25.6
2022-09-14T16:34:28.835Z,-25.4
2022-09-14T16:38:31.612Z,-25.6
2022-09-14T16:40:32.718Z,-25.7
2022-09-14T16:42:33.862Z,-25.6
2022-09-14T16:44:35.548Z,-25.7
2022-09-14T16:46:36.679Z,-25.7
2022-09-14T16:48:38.147Z,-25.3
2022-09-14T16:50:39.926Z,-25.4
2022-09-14T16:52:41.375Z,-25.5
2022-09-14T16:56:44.346Z,-25.6
2022-09-14T16:58:45.351Z,-25.4
2022-09-14T17:00:47.197Z,-25.6
2022-09-14T17:04:50.162Z,-25.6
2022-09-14T17:06:51.013Z,-25.4
2022-09-14T17:10:53.595Z,-25.6
2022-09-14T17:12:54.445Z,-25.4
2022-09-14T17:14:55.639Z,-25.4
2022-09-14T17:16:56.594Z,-25.4
2022-09-14T17:18:57.997Z,-25.6
2022-09-14T17:23:00.622Z,-25.4
2022-09-14T17:27:03.369Z,-25.5
2022-09-14T17:29:05.227Z,-25.3
2022-09-14T17:31:06.781Z,-25.5
2022-09-14T17:33:08.028Z,-25.4
2022-09-14T17:39:12.618Z,-25.5
2022-09-14T17:41:13.311Z,-25.5
2022-09-14T17:43:14.382Z,-25.7
2022-09-14T17:45:15.262Z,-25.4
2022-09-14T17:47:17.106Z,-25.6
2022-09-14T17:49:18.203Z,-25.5
2022-09-14T17:51:19.599Z,-25.5
2022-09-14T17:53:21.367Z,-25.7
2022-09-14T17:55:22.305Z,-25.5
2022-09-14T17:57:23.161Z,-25.5
2022-09-14T17:59:24.892Z,-25.4
2022-09-14T18:01:26.324Z,-25.5
2022-09-14T18:03:27.914Z,-25.3
2022-09-14T18:05:29.544Z,-25.4
2022-09-14T18:07:30.499Z,-25.5
2022-09-14T18:09:31.963Z,-25.6
2022-09-14T18:11:33.694Z,-25.7
2022-09-14T18:15:40.422Z,-25.7
2022-09-14T18:17:39.031Z,-25.3
2022-09-14T18:19:40.195Z,-25.2
2022-09-14T18:21:41.882Z,-25.5
2022-09-14T18:23:43.402Z,-25.3
2022-09-14T18:25:45.165Z,-25.6
2022-09-14T18:27:46.333Z,-25.4
2022-09-14T18:29:48.089Z,-25.3
2022-09-14T18:31:50.011Z,-25.4
2022-09-14T18:37:54.390Z,-25.6
2022-09-14T18:39:56.216Z,-25.6
2022-09-14T18:41:57.044Z,-25.6
2022-09-14T18:43:58.745Z,-25.5
2022-09-14T18:45:59.935Z,-25.4
2022-09-14T18:48:01.674Z,-25.4
2022-09-14T18:50:02.936Z,-25.7
2022-09-14T18:52:03.988Z,-25.6
2022-09-14T18:54:05.127Z,-25.5
2022-09-14T18:56:06.435Z,-25.4
2022-09-14T18:58:07.652Z,-25.5
2022-09-14T19:02:10.638Z,-25.5
2022-09-14T19:04:12.004Z,-25.4
2022-09-14T19:08:14.920Z,-25.6
2022-09-14T19:10:16.474Z,-25.4
2022-09-14T19:12:18.230Z,-25.4
2022-09-14T19:14:19.394Z,-25.5
2022-09-14T19:18:22.537Z,-25.4
2022-09-14T19:20:23.550Z,-25.4
2022-09-14T19:22:24.859Z,-25.7
2022-09-14T19:24:26.872Z,-25.6
2022-09-14T19:26:28.364Z,-25.5
2022-09-14T19:28:29.308Z,-25.4
2022-09-14T19:30:30.264Z,-25.4
2022-09-14T19:35:17.066Z,-25.5
2022-09-14T19:37:18.742Z,-25.6
2022-09-14T19:41:22.234Z,-25.5
2022-09-14T19:43:23.842Z,-25.4
2022-09-14T19:45:25.427Z,-25.5
2022-09-14T19:47:26.957Z,-25.5
2022-09-14T19:49:28.397Z,-25.6
2022-09-14T19:51:29.293Z,-25.5
2022-09-14T19:53:30.789Z,-25.2
2022-09-14T19:55:31.732Z,-25.4
2022-09-14T19:57:33.000Z,-25.5
2022-09-14T20:01:36.009Z,-25.4
2022-09-14T20:03:37.032Z,-25.5
2022-09-14T20:05:39.071Z,-25.4
2022-09-14T20:07:38.965Z,-25.5
2022-09-14T20:09:41.547Z,-25.5
2022-09-14T20:11:41.925Z,-25.4
2022-09-14T20:13:43.204Z,-25.5
2022-09-14T20:15:44.963Z,-25.5
2022-09-14T20:17:55.568Z,-25.5
2022-09-14T20:19:56.554Z,-25.6
2022-09-14T20:21:48.825Z,-25.7
2022-09-14T20:24:11.873Z,-25.6
2022-09-14T20:25:51.576Z,-25.3
2022-09-14T20:27:52.805Z,-25.7
2022-09-14T20:29:54.003Z,-25.5
2022-09-14T20:31:54.893Z,-25.5
2022-09-14T20:33:56.432Z,-25.3
2022-09-14T20:35:57.699Z,-25.5
2022-09-14T20:37:59.371Z,-25.6
2022-09-14T20:40:00.379Z,-25.3
2022-09-14T20:42:01.344Z,-25.7
2022-09-14T20:44:02.292Z,-25.5
2022-09-14T20:46:04.132Z,-25.4
2022-09-14T20:48:05.227Z,-25.4
2022-09-14T20:50:06.917Z,-25.6
2022-09-14T20:56:11.200Z,-25.7
2022-09-14T20:58:11.924Z,-25.4
2022-09-14T21:00:12.857Z,-25.5
2022-09-14T21:02:14.655Z,-25.4
2022-09-14T21:04:16.360Z,-25.5
2022-09-14T21:06:18.353Z,-25.6
2022-09-14T21:10:20.023Z,-25.5
2022-09-14T21:12:21.715Z,-25.3
2022-09-14T21:14:22.868Z,-25.6
2022-09-14T21:16:24.169Z,-25.4
2022-09-14T21:22:28.427Z,-25.3
2022-09-14T21:24:30.241Z,-25.6
2022-09-14T21:26:31.788Z,-25.6
2022-09-14T21:28:33.180Z,-25.7
2022-09-14T21:30:34.928Z,-25.3
2022-09-14T21:32:36.518Z,-25.2
2022-09-14T21:36:38.846Z,-25.6
2022-09-14T21:38:40.482Z,-25.7
2022-09-14T21:40:41.774Z,-25.6
2022-09-14T21:42:43.201Z,-25.6
2022-09-14T21:46:45.679Z,-25.6
2022-09-14T21:48:47.410Z,-25.5
2022-09-14T21:50:48.372Z,-25.4
2022-09-14T21:52:49.855Z,-25.6
2022-09-14T21:54:51.205Z,-25.8
2022-09-14T21:56:52.278Z,-25.4
2022-09-14T21:58:53.272Z,-25.6
2022-09-14T22:01:02.227Z,-25.5
2022-09-14T22:02:56.043Z,-25.6
2022-09-14T22:04:57.683Z,-25.5
2022-09-14T22:09:00.143Z,-25.6
2022-09-14T22:11:01.448Z,-25.5
2022-09-14T22:13:02.470Z,-25.3
2022-09-14T22:15:03.547Z,-25.6
2022-09-14T22:21:08.073Z,-25.5
2022-09-14T22:23:09.449Z,-25.5
2022-09-14T22:25:10.493Z,-25.4
2022-09-14T22:27:11.482Z,-25.6
2022-09-14T22:29:13.075Z,-25.5
2022-09-14T22:31:14.830Z,-25.6
2022-09-14T22:35:17.212Z,-25.5
2022-09-14T22:37:18.770Z,-25.7
2022-09-14T22:39:20.308Z,-25.5
2022-09-14T22:41:21.309Z,-25.9
2022-09-14T22:43:22.887Z,-25.4
2022-09-14T22:45:23.962Z,-25.5
2022-09-14T22:47:25.382Z,-25.7
2022-09-14T22:49:27.003Z,-25.5
2022-09-14T22:51:28.221Z,-25.4
2022-09-14T22:53:29.156Z,-25.4
2022-09-14T22:57:31.499Z,-25.4
2022-09-14T22:59:32.560Z,-25.5
2022-09-14T23:01:34.045Z,-25.5
2022-09-14T23:03:35.692Z,-25.7
2022-09-14T23:05:36.985Z,-25.4
2022-09-14T23:07:38.008Z,-25.7
2022-09-14T23:09:39.689Z,-25.5
2022-09-14T23:11:40.903Z,-25.4
2022-09-14T23:13:42.032Z,-25.6
2022-09-14T23:17:47.705Z,-25.4
2022-09-14T23:19:46.388Z,-25.5
2022-09-14T23:21:47.602Z,-25.3
2022-09-14T23:23:48.811Z,-25.7
2022-09-14T23:25:50.532Z,-25.5
2022-09-14T23:27:51.849Z,-25.6
2022-09-14T23:29:53.239Z,-25.6
2022-09-14T23:33:56.217Z,-25.6
2022-09-14T23:35:57.207Z,-25.4
2022-09-14T23:37:58.758Z,-25.6
2022-09-14T23:40:00.115Z,-25.8
2022-09-14T23:46:04.503Z,-25.6
2022-09-14T23:48:05.365Z,-25.6
2022-09-14T23:50:06.606Z,-25.7
2022-09-14T23:52:08.484Z,-25.5
2022-09-14T23:54:09.289Z,-25.5
2022-09-14T23:56:10.860Z,-25.5
